createdAt,value
2022-08-26T00:01:38.096Z,99112.78
2022-08-26T00:04:04.893Z,99109.78
2022-08-26T00:06:32.472Z,99105.53
2022-08-26T00:08:59.522Z,99112.09
2022-08-26T00:11:27.191Z,99104.50
2022-08-26T00:13:57.565Z,99096.38
2022-08-26T00:16:26.426Z,99092.66
2022-08-26T00:18:53.304Z,99094.88
2022-08-26T00:21:20.563Z,99090.59
2022-08-26T00:23:48.337Z,99094.69
2022-08-26T00:26:15.166Z,99099.84
2022-08-26T00:28:41.842Z,99093.66
2022-08-26T00:31:11.079Z,99091.53
2022-08-26T00:33:39.341Z,99098.88
2022-08-26T00:36:07.099Z,99092.94
2022-08-26T00:38:34.654Z,99092.69
2022-08-26T00:41:05.291Z,99098.38
2022-08-26T00:43:46.300Z,99101.94
2022-08-26T00:46:17.496Z,99092.78
2022-08-26T00:48:47.752Z,99091.19
2022-08-26T00:51:19.669Z,99091.97
2022-08-26T00:53:52.820Z,99094.16
2022-08-26T00:56:27.807Z,99099.56
2022-08-26T00:58:56.840Z,99088.53
2022-08-26T01:01:23.487Z,99094.22
2022-08-26T01:03:50.186Z,99095.03
2022-08-26T01:06:17.027Z,99095.03
2022-08-26T01:08:43.824Z,99091.53
2022-08-26T01:11:11.919Z,99081.50
2022-08-26T01:13:39.083Z,99088.00
2022-08-26T01:16:08.393Z,99088.28
2022-08-26T01:18:35.952Z,99090.44
2022-08-26T01:21:27.547Z,99086.09
2022-08-26T01:23:57.408Z,99088.53
2022-08-26T01:26:32.801Z,99093.16
2022-08-26T01:29:00.926Z,99093.41
2022-08-26T01:31:31.417Z,99086.41
2022-08-26T01:34:04.314Z,99089.94
2022-08-26T01:36:31.354Z,99093.72
2022-08-26T01:38:58.195Z,99081.00
2022-08-26T01:41:27.479Z,99086.91
2022-08-26T01:43:57.046Z,99085.59
2022-08-26T01:46:25.141Z,99089.38
2022-08-26T01:48:54.546Z,99092.09
2022-08-26T01:51:22.825Z,99093.47
2022-08-26T01:53:49.640Z,99084.78
2022-08-26T01:56:16.486Z,99092.13
2022-08-26T01:58:46.706Z,99095.91
2022-08-26T02:01:13.498Z,99087.78
2022-08-26T02:03:51.437Z,99080.22
2022-08-26T02:06:19.719Z,99087.25
2022-08-26T02:08:52.945Z,99088.34
2022-08-26T02:11:21.139Z,99094.56
2022-08-26T02:14:01.749Z,99081.56
2022-08-26T02:16:34.683Z,99087.78
2022-08-26T02:19:04.197Z,99082.94
2022-08-26T02:21:30.997Z,99086.72
2022-08-26T02:24:10.317Z,99085.41
2022-08-26T02:26:39.367Z,99087.56
2022-08-26T02:29:10.510Z,99078.09
2022-08-26T02:31:37.266Z,99080.25
2022-08-26T02:34:12.251Z,99084.03
2022-08-26T02:36:40.076Z,99074.03
2022-08-26T02:39:07.463Z,99071.88
2022-08-26T02:41:34.294Z,99070.25
2022-08-26T02:44:01.133Z,99067.28
2022-08-26T02:46:30.120Z,99071.06
2022-08-26T02:48:57.728Z,99060.50
2022-08-26T02:51:24.740Z,99064.03
2022-08-26T02:53:51.482Z,99065.41
2022-08-26T02:56:18.065Z,99066.75
2022-08-26T02:58:45.010Z,99070.59
2022-08-26T03:01:30.138Z,99069.50
2022-08-26T03:03:57.524Z,99068.97
2022-08-26T03:06:24.887Z,99064.63
2022-08-26T03:08:52.542Z,99063.81
2022-08-26T03:11:19.666Z,99063.81
2022-08-26T03:13:46.465Z,99060.03
2022-08-26T03:16:13.556Z,99061.66
2022-08-26T03:18:40.706Z,99057.91
2022-08-26T03:21:10.781Z,99061.69
2022-08-26T03:23:38.917Z,99055.72
2022-08-26T03:26:06.976Z,99058.44
2022-08-26T03:28:33.944Z,99055.72
2022-08-26T03:31:02.354Z,99060.88
2022-08-26T03:33:29.237Z,99053.84
2022-08-26T03:35:55.975Z,99056.84
2022-08-26T03:38:25.336Z,99061.13
2022-08-26T03:40:52.517Z,99060.63
2022-08-26T03:43:19.701Z,99059.81
2022-08-26T03:45:46.602Z,99058.75
2022-08-26T03:48:13.487Z,99058.50
2022-08-26T03:50:40.177Z,99056.88
2022-08-26T03:53:07.540Z,99060.38
2022-08-26T03:55:40.780Z,99067.69
2022-08-26T03:58:07.396Z,99064.72
2022-08-26T04:00:34.443Z,99064.69
2022-08-26T04:03:01.387Z,99054.94
2022-08-26T04:05:28.373Z,99059.53
2022-08-26T04:07:54.989Z,99057.66
2022-08-26T04:10:28.939Z,99052.50
2022-08-26T04:12:58.809Z,99049.53
2022-08-26T04:15:25.908Z,99046.88
2022-08-26T04:17:52.647Z,99051.72
2022-08-26T04:20:19.547Z,99052.81
2022-08-26T04:22:46.554Z,99047.13
2022-08-26T04:25:13.690Z,99056.31
2022-08-26T04:27:40.797Z,99055.22
2022-08-26T04:30:08.895Z,99050.88
2022-08-26T04:32:36.469Z,99053.06
2022-08-26T04:35:03.677Z,99054.13
2022-08-26T04:37:32.570Z,99059.22
2022-08-26T04:39:59.282Z,99068.69
2022-08-26T04:42:26.429Z,99068.94
2022-08-26T04:44:53.155Z,99071.88
2022-08-26T04:47:19.799Z,99068.91
2022-08-26T04:49:46.464Z,99066.13
2022-08-26T04:52:13.164Z,99061.47
2022-08-26T04:54:41.922Z,99060.88
2022-08-26T04:57:08.865Z,99062.16
2022-08-26T04:59:39.162Z,99068.34
2022-08-26T05:02:06.982Z,99063.16
2022-08-26T05:04:33.907Z,99060.34
2022-08-26T05:07:02.910Z,99075.16
2022-08-26T05:09:30.427Z,99073.75
2022-08-26T05:11:57.299Z,99073.91
2022-08-26T05:14:24.094Z,99073.38
2022-08-26T05:16:51.097Z,99072.44
2022-08-26T05:19:18.850Z,99083.88
2022-08-26T05:21:47.149Z,99086.63
2022-08-26T05:24:14.355Z,99083.44
2022-08-26T05:26:41.261Z,99084.56
2022-08-26T05:29:08.032Z,99082.19
2022-08-26T05:31:35.635Z,99083.63
2022-08-26T05:34:04.540Z,99082.53
2022-08-26T05:36:34.073Z,99095.34
2022-08-26T05:39:03.849Z,99091.28
2022-08-26T05:41:36.597Z,99090.25
2022-08-26T05:44:07.636Z,99083.25
2022-08-26T05:46:36.679Z,99080.56
2022-08-26T05:49:05.703Z,99078.34
2022-08-26T05:51:32.596Z,99083.91
2022-08-26T05:54:02.373Z,99084.06
2022-08-26T05:56:30.415Z,99084.44
2022-08-26T05:58:58.487Z,99082.38
2022-08-26T06:01:27.860Z,99083.88
2022-08-26T06:04:01.698Z,99080.03
2022-08-26T06:06:33.873Z,99087.91
2022-08-26T06:09:03.843Z,99080.25
2022-08-26T06:11:32.535Z,99083.13
2022-08-26T06:14:03.722Z,99073.09
2022-08-26T06:16:32.193Z,99082.56
2022-08-26T06:18:58.876Z,99089.25
2022-08-26T06:21:39.161Z,99087.22
2022-08-26T06:24:27.810Z,99086.47
2022-08-26T06:27:03.411Z,99076.91
2022-08-26T06:29:33.626Z,99088.63
2022-08-26T06:32:01.280Z,99074.88
2022-08-26T06:34:31.277Z,99074.75
2022-08-26T06:37:01.960Z,99069.13
2022-08-26T06:39:31.070Z,99078.03
2022-08-26T06:41:59.271Z,99072.66
2022-08-26T06:44:26.833Z,99073.25
2022-08-26T06:46:53.567Z,99070.47
2022-08-26T06:49:26.910Z,99068.25
2022-08-26T06:51:56.473Z,99075.06
2022-08-26T06:54:23.079Z,99064.66
2022-08-26T06:56:49.707Z,99073.78
2022-08-26T06:59:16.325Z,99078.91
2022-08-26T07:01:46.686Z,99071.44
2022-08-26T07:04:20.051Z,99074.84
2022-08-26T07:06:50.245Z,99067.19
2022-08-26T07:09:21.221Z,99062.31
2022-08-26T07:11:48.206Z,99062.50
2022-08-26T07:14:16.837Z,99061.09
2022-08-26T07:16:47.413Z,99063.03
2022-08-26T07:19:14.106Z,99063.06
2022-08-26T07:21:44.154Z,99057.47
2022-08-26T07:24:11.169Z,99060.97
2022-08-26T07:26:38.773Z,99055.47
2022-08-26T07:29:09.606Z,99062.59
2022-08-26T07:31:39.441Z,99053.31
2022-08-26T07:34:09.368Z,99058.81
2022-08-26T07:36:36.633Z,99056.41
2022-08-26T07:39:03.490Z,99061.91
2022-08-26T07:43:56.603Z,99049.38
2022-08-26T07:46:27.147Z,99055.66
2022-08-26T07:48:54.757Z,99052.44
2022-08-26T07:51:22.557Z,99048.59
2022-08-26T07:53:52.408Z,99051.34
2022-08-26T07:56:20.832Z,99057.50
2022-08-26T07:58:51.369Z,99053.47
2022-08-26T08:01:20.069Z,99045.31
2022-08-26T08:03:46.860Z,99053.72
2022-08-26T08:06:22.217Z,99047.97
2022-08-26T08:08:50.836Z,99052.88
2022-08-26T08:11:21.169Z,99045.31
2022-08-26T08:13:48.799Z,99036.94
2022-08-26T08:16:15.781Z,99041.75
2022-08-26T08:18:42.485Z,99040.81
2022-08-26T08:21:21.690Z,99034.97
2022-08-26T08:23:49.154Z,99038.69
2022-08-26T08:26:15.766Z,99033.72
2022-08-26T08:28:43.655Z,99033.69
2022-08-26T08:31:54.480Z,99031.34
2022-08-26T08:34:15.492Z,99033.38
2022-08-26T08:36:42.235Z,99035.91
2022-08-26T08:39:09.311Z,99031.00
2022-08-26T08:41:54.700Z,99029.91
2022-08-26T08:44:31.254Z,99027.63
2022-08-26T08:47:05.147Z,99029.31
2022-08-26T08:49:33.378Z,99025.00
2022-08-26T08:52:14.289Z,99023.88
2022-08-26T08:54:41.701Z,99017.38
2022-08-26T08:57:11.532Z,99015.34
2022-08-26T08:59:47.678Z,99021.41
2022-08-26T09:02:53.485Z,99020.81
2022-08-26T09:05:34.046Z,99013.66
2022-08-26T09:08:16.672Z,99011.16
2022-08-26T09:10:50.991Z,99011.72
2022-08-26T09:13:25.308Z,99005.72
2022-08-26T09:16:07.578Z,99005.91
2022-08-26T09:18:55.682Z,99009.28
2022-08-26T09:21:24.004Z,99007.31
2022-08-26T09:23:55.423Z,99011.25
2022-08-26T09:26:45.415Z,99005.25
2022-08-26T09:29:27.208Z,99002.56
2022-08-26T09:32:19.585Z,99002.50
2022-08-26T09:35:11.104Z,99007.72
2022-08-26T09:40:34.916Z,98996.34
2022-08-26T09:43:04.917Z,98996.34
2022-08-26T09:45:34.110Z,98991.56
2022-08-26T09:48:01.674Z,98989.09
2022-08-26T09:50:38.296Z,98987.19
2022-08-26T09:53:09.981Z,98983.59
2022-08-26T09:55:42.044Z,98983.72
2022-08-26T09:58:13.582Z,98982.53
2022-08-26T10:00:43.199Z,98981.00
2022-08-26T10:03:12.147Z,98990.16
2022-08-26T10:05:57.249Z,98982.25
2022-08-26T10:08:28.527Z,98984.22
2022-08-26T10:10:57.592Z,98971.06
2022-08-26T10:13:32.341Z,98984.34
2022-08-26T10:16:06.341Z,98971.09
2022-08-26T10:18:42.214Z,98971.38
2022-08-26T10:21:17.942Z,98970.34
2022-08-26T10:23:48.669Z,98970.31
2022-08-26T10:26:32.801Z,98965.38
2022-08-26T10:29:07.302Z,98963.88
2022-08-26T10:31:40.498Z,98963.50
2022-08-26T10:34:08.647Z,98956.28
2022-08-26T10:37:10.526Z,98953.28
2022-08-26T10:40:00.587Z,98952.94
2022-08-26T10:42:37.526Z,98944.28
2022-08-26T10:45:16.964Z,98943.91
2022-08-26T10:47:52.713Z,98934.78
2022-08-26T10:50:20.798Z,98935.69
2022-08-26T10:53:12.086Z,98930.59
2022-08-26T10:56:00.198Z,98927.44
2022-08-26T10:58:58.851Z,98926.25
2022-08-26T11:01:47.019Z,98925.94
2022-08-26T11:04:35.826Z,98925.13
2022-08-26T11:07:32.043Z,98923.09
2022-08-26T11:10:15.564Z,98911.19
2022-08-26T11:12:42.150Z,98912.41
2022-08-26T11:15:19.456Z,98915.94
2022-08-26T11:17:51.367Z,98908.00
2022-08-26T11:20:24.315Z,98907.94
2022-08-26T11:22:52.778Z,98898.03
2022-08-26T11:25:23.573Z,98899.16
2022-08-26T11:27:56.678Z,98900.03
2022-08-26T11:30:24.103Z,98896.47
2022-08-26T11:32:54.192Z,98890.44
2022-08-26T11:35:20.737Z,98886.50
2022-08-26T11:37:48.126Z,98882.19
2022-08-26T11:40:21.042Z,98882.16
2022-08-26T11:43:11.653Z,98877.00
2022-08-26T11:45:46.675Z,98868.63
2022-08-26T11:48:32.526Z,98866.59
2022-08-26T11:51:08.530Z,98868.56
2022-08-26T11:53:37.757Z,98854.59
2022-08-26T11:56:16.038Z,98853.00
2022-08-26T11:58:44.303Z,98850.56
2022-08-26T12:01:13.862Z,98844.56
2022-08-26T12:03:49.079Z,98835.75
2022-08-26T12:06:28.861Z,98841.03
2022-08-26T12:08:58.713Z,98844.19
2022-08-26T12:11:31.496Z,98838.13
2022-08-26T12:14:04.777Z,98830.13
2022-08-26T12:16:39.408Z,98831.31
2022-08-26T12:19:21.474Z,98819.28
2022-08-26T12:22:01.531Z,98818.16
2022-08-26T12:24:28.558Z,98814.88
2022-08-26T12:27:08.614Z,98813.28
2022-08-26T12:29:35.474Z,98805.31
2022-08-26T12:32:13.256Z,98807.22
2022-08-26T12:34:41.904Z,98794.91
2022-08-26T12:37:11.891Z,98801.53
2022-08-26T12:39:40.955Z,98801.84
2022-08-26T12:42:15.604Z,98804.53
2022-08-26T12:44:54.247Z,98790.16
2022-08-26T12:47:28.772Z,98792.84
2022-08-26T12:50:21.373Z,98783.28
2022-08-26T12:52:54.209Z,98785.72
2022-08-26T12:55:25.026Z,98785.31
2022-08-26T12:58:15.270Z,98789.44
2022-08-26T13:00:42.457Z,98778.38
2022-08-26T13:03:29.226Z,98781.34
2022-08-26T13:06:31.531Z,98781.06
2022-08-26T13:09:07.330Z,98777.06
2022-08-26T13:11:34.101Z,98778.34
2022-08-26T13:14:12.153Z,98772.56
2022-08-26T13:16:49.353Z,98770.69
2022-08-26T13:19:25.423Z,98763.19
2022-08-26T13:21:54.769Z,98757.59
2022-08-26T13:24:24.898Z,98747.28
2022-08-26T13:26:51.848Z,98747.25
2022-08-26T13:29:19.336Z,98746.88
2022-08-26T13:31:46.282Z,98746.94
2022-08-26T13:34:19.134Z,98737.31
2022-08-26T13:36:50.883Z,98735.44
2022-08-26T13:39:18.165Z,98727.50
2022-08-26T13:41:44.866Z,98729.88
2022-08-26T13:44:11.892Z,98733.25
2022-08-26T13:46:38.784Z,98725.97
2022-08-26T13:49:05.594Z,98723.78
2022-08-26T13:51:32.951Z,98721.13
2022-08-26T13:53:59.840Z,98714.28
2022-08-26T13:56:29.450Z,98727.81
2022-08-26T13:58:57.450Z,98721.56
2022-08-26T14:01:24.246Z,98714.50
2022-08-26T14:03:51.145Z,98715.31
2022-08-26T14:06:18.114Z,98712.41
2022-08-26T14:08:44.932Z,98712.69
2022-08-26T14:11:12.129Z,98707.41
2022-08-26T14:13:39.423Z,98708.59
2022-08-26T14:16:09.753Z,98700.75
2022-08-26T14:18:44.409Z,98702.69
2022-08-26T14:21:14.336Z,98699.59
2022-08-26T14:23:41.389Z,98702.56
2022-08-26T14:26:10.885Z,98694.53
2022-08-26T14:28:41.766Z,98691.47
2022-08-26T14:31:08.773Z,98690.16
2022-08-26T14:33:38.074Z,98697.44
2022-08-26T14:36:26.524Z,98692.19
2022-08-26T14:38:54.273Z,98690.09
2022-08-26T14:41:21.703Z,98682.56
2022-08-26T14:43:59.902Z,98691.00
2022-08-26T14:46:29.102Z,98691.69
2022-08-26T14:48:58.732Z,98694.97
2022-08-26T14:51:28.868Z,98694.91
2022-08-26T14:54:13.883Z,98700.03
2022-08-26T14:56:54.036Z,98697.91
2022-08-26T14:59:26.742Z,98695.16
2022-08-26T15:01:54.321Z,98697.66
2022-08-26T15:04:21.556Z,98697.25
2022-08-26T15:06:48.394Z,98694.00
2022-08-26T15:09:15.830Z,98689.16
2022-08-26T15:11:47.647Z,98692.66
2022-08-26T15:14:19.321Z,98689.63
2022-08-26T15:16:51.930Z,98698.88
2022-08-26T15:19:18.832Z,98688.13
2022-08-26T15:21:47.032Z,98689.84
2022-08-26T15:24:15.041Z,98685.94
2022-08-26T15:26:43.129Z,98684.88
2022-08-26T15:29:09.814Z,98682.53
2022-08-26T15:31:36.540Z,98680.19
2022-08-26T15:34:06.724Z,98692.22
2022-08-26T15:36:33.551Z,98682.75
2022-08-26T15:39:00.659Z,98676.03
2022-08-26T15:41:27.996Z,98673.66
2022-08-26T15:43:54.606Z,98666.91
2022-08-26T15:46:21.284Z,98673.25
2022-08-26T15:48:47.890Z,98675.25
2022-08-26T15:51:30.066Z,98675.25
2022-08-26T15:53:57.572Z,98684.38
2022-08-26T15:56:26.014Z,98681.59
2022-08-26T15:58:54.978Z,98670.47
2022-08-26T16:01:27.436Z,98680.00
2022-08-26T16:03:56.700Z,98678.44
2022-08-26T16:06:29.574Z,98673.66
2022-08-26T16:08:57.005Z,98678.78
2022-08-26T16:11:24.866Z,98677.16
2022-08-26T16:13:51.864Z,98669.53
2022-08-26T16:16:19.108Z,98676.16
2022-08-26T16:18:45.911Z,98675.22
2022-08-26T16:21:18.078Z,98671.13
2022-08-26T16:23:45.589Z,98674.50
2022-08-26T16:26:20.890Z,98667.13
2022-08-26T16:28:47.720Z,98666.09
2022-08-26T16:31:15.043Z,98676.28
2022-08-26T16:33:41.733Z,98668.97
2022-08-26T16:36:09.050Z,98676.59
2022-08-26T16:38:37.625Z,98681.56
2022-08-26T16:41:05.131Z,98683.84
2022-08-26T16:43:31.763Z,98678.56
2022-08-26T16:45:58.557Z,98674.09
2022-08-26T16:48:25.450Z,98676.28
2022-08-26T16:50:54.374Z,98685.59
2022-08-26T16:53:21.570Z,98676.00
2022-08-26T16:55:48.813Z,98676.19
2022-08-26T16:58:16.335Z,98679.97
2022-08-26T17:00:43.138Z,98677.03
2022-08-26T17:03:10.020Z,98677.63
2022-08-26T17:05:37.127Z,98675.13
2022-08-26T17:08:04.707Z,98675.72
2022-08-26T17:10:32.282Z,98675.22
2022-08-26T17:12:58.975Z,98669.84
2022-08-26T17:15:25.897Z,98669.19
2022-08-26T17:17:53.242Z,98672.91
2022-08-26T17:20:22.306Z,98676.13
2022-08-26T17:22:50.739Z,98673.50
2022-08-26T17:25:22.370Z,98667.97
2022-08-26T17:27:49.030Z,98669.63
2022-08-26T17:30:17.235Z,98667.34
2022-08-26T17:32:44.749Z,98666.25
2022-08-26T17:35:12.997Z,98657.19
2022-08-26T17:37:40.260Z,98656.50
2022-08-26T17:40:11.654Z,98658.91
2022-08-26T17:42:39.272Z,98667.25
2022-08-26T17:45:08.397Z,98671.16
2022-08-26T17:47:35.300Z,98669.06
2022-08-26T17:50:02.807Z,98677.28
2022-08-26T17:52:30.495Z,98676.91
2022-08-26T17:54:57.280Z,98677.75
2022-08-26T17:57:25.849Z,98679.38
2022-08-26T17:59:53.649Z,98683.41
2022-08-26T18:02:22.240Z,98681.69
2022-08-26T18:04:48.986Z,98681.50
2022-08-26T18:07:16.391Z,98685.53
2022-08-26T18:09:43.319Z,98692.53
2022-08-26T18:12:10.331Z,98695.75
2022-08-26T18:14:37.167Z,98692.44
2022-08-26T18:17:03.967Z,98685.34
2022-08-26T18:19:31.369Z,98697.25
2022-08-26T18:21:58.440Z,98699.53
2022-08-26T18:24:25.176Z,98705.09
2022-08-26T18:26:51.820Z,98705.31
2022-08-26T18:29:19.668Z,98710.06
2022-08-26T18:31:47.003Z,98714.06
2022-08-26T18:34:15.505Z,98713.47
2022-08-26T18:36:42.667Z,98709.66
2022-08-26T18:39:09.971Z,98706.88
2022-08-26T18:41:44.726Z,98715.06
2022-08-26T18:44:13.954Z,98718.88
2022-08-26T18:46:41.054Z,98723.66
2022-08-26T18:49:08.345Z,98723.66
2022-08-26T18:51:35.348Z,98731.59
2022-08-26T18:54:03.410Z,98733.56
2022-08-26T18:56:31.076Z,98740.84
2022-08-26T18:58:59.726Z,98733.31
2022-08-26T19:01:28.248Z,98736.25
2022-08-26T19:03:56.552Z,98738.31
2022-08-26T19:06:24.266Z,98741.72
2022-08-26T19:08:50.949Z,98747.69
2022-08-26T19:11:18.450Z,98745.28
2022-08-26T19:14:03.041Z,98749.19
2022-08-26T19:16:30.202Z,98747.94
2022-08-26T19:18:58.398Z,98756.00
2022-08-26T19:21:25.235Z,98757.13
2022-08-26T19:23:52.620Z,98766.75
2022-08-26T19:26:19.342Z,98768.25
2022-08-26T19:28:45.986Z,98763.09
2022-08-26T19:31:12.749Z,98761.81
2022-08-26T19:33:41.917Z,98765.69
2022-08-26T19:36:14.822Z,98771.00
2022-08-26T19:38:42.801Z,98765.53
2022-08-26T19:41:18.482Z,98771.31
2022-08-26T19:43:46.271Z,98771.31
2022-08-26T19:46:17.310Z,98781.44
2022-08-26T19:48:45.116Z,98779.22
2022-08-26T19:51:17.365Z,98778.84
2022-08-26T19:53:45.225Z,98781.41
2022-08-26T19:56:12.744Z,98779.66
2022-08-26T19:58:40.121Z,98785.78
2022-08-26T20:01:07.972Z,98780.34
2022-08-26T20:03:35.651Z,98785.00
2022-08-26T20:06:03.840Z,98780.66
2022-08-26T20:08:30.579Z,98786.28
2022-08-26T20:11:01.218Z,98789.69
2022-08-26T20:13:28.430Z,98781.34
2022-08-26T20:15:55.026Z,98792.28
2022-08-26T20:18:40.278Z,98784.38
2022-08-26T20:21:25.533Z,98790.66
2022-08-26T20:23:54.338Z,98791.63
2022-08-26T20:26:20.919Z,98797.09
2022-08-26T20:28:47.670Z,98795.66
2022-08-26T20:31:19.410Z,98798.53
2022-08-26T20:33:46.956Z,98796.13
2022-08-26T20:36:15.257Z,98800.00
2022-08-26T20:38:42.055Z,98803.69
2022-08-26T20:41:08.840Z,98795.00
2022-08-26T20:43:35.609Z,98801.78
2022-08-26T20:46:02.333Z,98797.91
2022-08-26T20:48:34.971Z,98791.63
2022-08-26T20:51:01.831Z,98792.94
2022-08-26T20:53:29.903Z,98792.44
2022-08-26T20:56:05.262Z,98787.94
2022-08-26T20:58:31.957Z,98786.50
2022-08-26T21:00:58.668Z,98782.81
2022-08-26T21:03:25.418Z,98781.84
2022-08-26T21:05:52.268Z,98779.75
2022-08-26T21:08:18.965Z,98782.63
2022-08-26T21:10:46.160Z,98787.59
2022-08-26T21:13:13.256Z,98797.25
2022-08-26T21:15:39.919Z,98794.66
2022-08-26T21:18:07.949Z,98801.69
2022-08-26T21:20:36.570Z,98801.50
2022-08-26T21:23:04.567Z,98802.31
2022-08-26T21:25:31.310Z,98806.47
2022-08-26T21:27:57.894Z,98799.88
2022-08-26T21:30:24.530Z,98805.03
2022-08-26T21:32:51.267Z,98808.56
2022-08-26T21:35:17.949Z,98802.00
2022-08-26T21:37:44.594Z,98805.03
2022-08-26T21:40:11.674Z,98803.41
2022-08-26T21:42:38.419Z,98807.75
2022-08-26T21:45:06.012Z,98803.78
2022-08-26T21:47:32.780Z,98815.31
2022-08-26T21:49:59.506Z,98810.38
2022-08-26T21:52:26.451Z,98811.63
2022-08-26T21:54:57.364Z,98817.75
2022-08-26T21:57:24.186Z,98814.38
2022-08-26T21:59:51.043Z,98812.44
2022-08-26T22:02:17.960Z,98809.72
2022-08-26T22:04:48.599Z,98809.56
2022-08-26T22:07:18.235Z,98811.16
2022-08-26T22:09:44.853Z,98811.31
2022-08-26T22:12:12.220Z,98806.66
2022-08-26T22:14:39.779Z,98797.81
2022-08-26T22:17:06.709Z,98802.63
2022-08-26T22:19:33.972Z,98802.78
2022-08-26T22:22:00.958Z,98808.72
2022-08-26T22:24:27.716Z,98817.53
2022-08-26T22:26:54.928Z,98807.88
2022-08-26T22:29:22.148Z,98813.47
2022-08-26T22:31:48.770Z,98804.00
2022-08-26T22:34:17.189Z,98803.97
2022-08-26T22:36:45.894Z,98801.88
2022-08-26T22:39:14.773Z,98797.19
2022-08-26T22:41:42.941Z,98804.19
2022-08-26T22:44:10.478Z,98810.09
2022-08-26T22:46:38.657Z,98810.22
2022-08-26T22:49:06.476Z,98813.91
2022-08-26T22:51:33.430Z,98816.44
2022-08-26T22:54:00.643Z,98813.53
2022-08-26T22:56:27.344Z,98816.38
2022-08-26T22:58:53.996Z,98819.56
2022-08-26T23:01:20.668Z,98819.69
2022-08-26T23:03:47.443Z,98828.50
2022-08-26T23:06:14.174Z,98821.22
2022-08-26T23:08:42.009Z,98826.19
2022-08-26T23:11:10.635Z,98809.47
2022-08-26T23:13:37.866Z,98819.88
2022-08-26T23:16:09.418Z,98818.38
2022-08-26T23:18:36.469Z,98816.75
2022-08-26T23:21:03.104Z,98823.47
2022-08-26T23:23:29.836Z,98825.19
2022-08-26T23:25:56.672Z,98822.28
2022-08-26T23:28:23.878Z,98817.34
2022-08-26T23:30:50.535Z,98818.09
2022-08-26T23:33:17.362Z,98816.16
2022-08-26T23:35:44.017Z,98824.13
2022-08-26T23:38:11.691Z,98816.59
2022-08-26T23:40:41.413Z,98815.69
2022-08-26T23:43:09.898Z,98820.97
2022-08-26T23:45:37.420Z,98827.63
2022-08-26T23:48:04.775Z,98816.84
2022-08-26T23:50:50.598Z,98815.22
2022-08-26T23:53:20.561Z,98817.75
2022-08-26T23:55:49.518Z,98823.19
2022-08-26T23:58:17.803Z,98823.59
